createdAt,value
2019-01-26T00:01:03.340Z,100683.73
2019-01-26T00:02:09.887Z,100679.33
2019-01-26T00:03:14.840Z,100684.52
2019-01-26T00:04:20.046Z,100685.25
2019-01-26T00:05:25.314Z,100687.88
2019-01-26T00:06:30.209Z,100686.56
2019-01-26T00:07:35.688Z,100688.27
2019-01-26T00:08:40.867Z,100686.84
2019-01-26T00:09:46.336Z,100690.32
2019-01-26T00:10:51.303Z,100686.48
2019-01-26T00:11:56.409Z,100685.98
2019-01-26T00:13:01.753Z,100686.84
2019-01-26T00:14:06.789Z,100678.86
2019-01-26T00:15:12.097Z,100680.06
2019-01-26T00:16:21.053Z,100685.14
2019-01-26T00:17:24.000Z,100683.74
2019-01-26T00:18:31.002Z,100678.86
2019-01-26T00:19:37.732Z,100690.59
2019-01-26T00:20:42.936Z,100682.81
2019-01-26T00:21:47.917Z,100677.43
2019-01-26T00:22:52.824Z,100679.13
2019-01-26T00:23:58.114Z,100673.40
2019-01-26T00:25:03.861Z,100673.87
2019-01-26T00:26:08.880Z,100675.65
2019-01-26T00:27:14.596Z,100665.85
2019-01-26T00:28:19.568Z,100668.41
2019-01-26T00:29:24.615Z,100663.52
2019-01-26T00:30:30.211Z,100662.86
2019-01-26T00:31:35.501Z,100659.27
2019-01-26T00:32:40.501Z,100663.59
2019-01-26T00:33:45.669Z,100669.72
2019-01-26T00:34:50.602Z,100672.23
2019-01-26T00:35:55.685Z,100663.87
2019-01-26T00:37:00.588Z,100667.27
2019-01-26T00:38:05.880Z,100664.14
2019-01-26T00:39:10.940Z,100656.23
2019-01-26T00:40:16.191Z,100662.27
2019-01-26T00:41:22.541Z,100663.59
2019-01-26T00:42:27.803Z,100658.70
2019-01-26T00:43:32.775Z,100659.17
2019-01-26T00:44:37.671Z,100660.84
2019-01-26T00:45:42.932Z,100657.74
2019-01-26T00:46:47.837Z,100655.96
2019-01-26T00:47:52.752Z,100654.17
2019-01-26T00:48:57.997Z,100656.34
2019-01-26T00:50:02.985Z,100661.50
2019-01-26T00:51:07.970Z,100661.88
2019-01-26T00:52:12.876Z,100658.31
2019-01-26T00:53:18.794Z,100666.09
2019-01-26T00:54:23.982Z,100661.69
2019-01-26T00:55:28.928Z,100658.58
2019-01-26T00:56:34.018Z,100661.59
2019-01-26T00:57:38.987Z,100659.78
2019-01-26T00:58:43.983Z,100659.70
2019-01-26T00:59:49.124Z,100662.72
2019-01-26T01:00:54.307Z,100662.60
2019-01-26T01:01:59.294Z,100658.66
2019-01-26T01:03:04.324Z,100653.77
2019-01-26T01:04:09.501Z,100660.36
2019-01-26T01:05:14.805Z,100653.30
2019-01-26T01:06:19.788Z,100655.47
2019-01-26T01:07:26.069Z,100653.45
2019-01-26T01:08:31.051Z,100652.05
2019-01-26T01:09:36.380Z,100648.09
2019-01-26T01:10:41.427Z,100652.44
2019-01-26T01:11:46.686Z,100651.00
2019-01-26T01:12:51.661Z,100651.00
2019-01-26T01:13:56.593Z,100652.23
2019-01-26T01:15:01.797Z,100645.53
2019-01-26T01:16:07.131Z,100651.65
2019-01-26T01:17:12.097Z,100646.97
2019-01-26T01:18:17.074Z,100639.80
2019-01-26T01:19:22.313Z,100645.53
2019-01-26T01:20:27.286Z,100647.31
2019-01-26T01:21:32.852Z,100641.11
2019-01-26T01:22:38.251Z,100647.61
2019-01-26T01:23:43.710Z,100642.23
2019-01-26T01:24:49.078Z,100644.31
2019-01-26T01:25:54.015Z,100646.45
2019-01-26T01:26:59.130Z,100642.41
2019-01-26T01:28:04.590Z,100644.19
2019-01-26T01:29:09.497Z,100641.56
2019-01-26T01:30:17.862Z,100639.86
2019-01-26T01:31:22.755Z,100636.48
2019-01-26T01:32:27.897Z,100626.42
2019-01-26T01:33:32.869Z,100633.00
2019-01-26T01:34:37.781Z,100637.34
2019-01-26T01:35:42.665Z,100628.12
2019-01-26T01:36:47.935Z,100625.02
2019-01-26T01:37:52.907Z,100626.33
2019-01-26T01:38:57.921Z,100620.21
2019-01-26T01:40:03.591Z,100625.48
2019-01-26T01:41:08.553Z,100622.47
2019-01-26T01:42:13.574Z,100622.00
2019-01-26T01:43:18.629Z,100623.78
2019-01-26T01:44:23.922Z,100624.25
2019-01-26T01:45:29.332Z,100627.00
2019-01-26T01:46:34.309Z,100621.73
2019-01-26T01:47:39.367Z,100628.78
2019-01-26T01:48:44.209Z,100618.33
2019-01-26T01:49:49.459Z,100621.73
2019-01-26T01:50:54.450Z,100618.62
2019-01-26T01:51:59.514Z,100618.33
2019-01-26T01:53:04.837Z,100619.65
2019-01-26T01:54:09.812Z,100615.34
2019-01-26T01:55:15.794Z,100619.65
2019-01-26T01:56:20.902Z,100616.08
2019-01-26T01:57:25.784Z,100614.30
2019-01-26T01:58:31.035Z,100612.05
2019-01-26T01:59:36.337Z,100618.52
2019-01-26T02:00:41.256Z,100618.89
2019-01-26T02:01:46.205Z,100617.11
2019-01-26T02:02:51.168Z,100612.30
2019-01-26T02:03:56.434Z,100613.63
2019-01-26T02:05:01.662Z,100610.98
2019-01-26T02:06:06.920Z,100614.56
2019-01-26T02:07:11.939Z,100608.36
2019-01-26T02:08:16.853Z,100614.09
2019-01-26T02:09:21.939Z,100617.58
2019-01-26T02:10:28.747Z,100614.48
2019-01-26T02:11:33.662Z,100609.67
2019-01-26T02:12:39.025Z,100603.55
2019-01-26T02:13:43.989Z,100608.83
2019-01-26T02:14:48.907Z,100612.69
2019-01-26T02:15:53.950Z,100608.62
2019-01-26T02:16:58.882Z,100609.85
2019-01-26T02:18:04.711Z,100611.17
2019-01-26T02:19:09.630Z,100610.20
2019-01-26T02:20:17.846Z,100607.22
2019-01-26T02:21:23.071Z,100613.22
2019-01-26T02:22:27.977Z,100608.41
2019-01-26T02:23:33.128Z,100614.53
2019-01-26T02:24:38.305Z,100611.43
2019-01-26T02:25:43.235Z,100606.05
2019-01-26T02:26:48.861Z,100601.53
2019-01-26T02:27:54.144Z,100593.63
2019-01-26T02:28:59.028Z,100587.42
2019-01-26T02:30:05.131Z,100590.06
2019-01-26T02:31:10.435Z,100597.11
2019-01-26T02:32:15.454Z,100601.42
2019-01-26T02:33:20.364Z,100599.75
2019-01-26T02:34:25.270Z,100596.65
2019-01-26T02:35:30.664Z,100594.48
2019-01-26T02:36:35.682Z,100594.36
2019-01-26T02:37:40.836Z,100587.30
2019-01-26T02:38:45.743Z,100593.42
2019-01-26T02:39:50.634Z,100587.42
2019-01-26T02:40:55.531Z,100582.03
2019-01-26T02:42:00.800Z,100589.35
2019-01-26T02:43:05.788Z,100584.93
2019-01-26T02:44:11.160Z,100590.58
2019-01-26T02:45:16.346Z,100591.81
2019-01-26T02:46:21.271Z,100594.80
2019-01-26T02:47:26.188Z,100589.44
2019-01-26T02:48:31.085Z,100599.98
2019-01-26T02:49:35.988Z,100593.74
2019-01-26T02:50:41.028Z,100590.29
2019-01-26T02:51:46.227Z,100592.80
2019-01-26T02:52:51.149Z,100584.52
2019-01-26T02:53:56.079Z,100594.13
2019-01-26T02:55:00.992Z,100591.48
2019-01-26T02:56:05.967Z,100598.08
2019-01-26T02:57:11.800Z,100593.19
2019-01-26T02:58:16.789Z,100590.55
2019-01-26T02:59:21.771Z,100587.33
2019-01-26T03:00:29.688Z,100577.16
2019-01-26T03:01:34.719Z,100585.33
2019-01-26T03:02:40.042Z,100584.48
2019-01-26T03:03:44.952Z,100598.42
2019-01-26T03:04:50.181Z,100588.73
2019-01-26T03:05:55.082Z,100592.18
2019-01-26T03:07:00.293Z,100588.14
2019-01-26T03:08:05.478Z,100587.67
2019-01-26T03:09:10.675Z,100584.91
2019-01-26T03:10:17.525Z,100583.59
2019-01-26T03:11:22.847Z,100584.06
2019-01-26T03:12:27.748Z,100588.40
2019-01-26T03:13:32.702Z,100583.13
2019-01-26T03:14:38.210Z,100583.59
2019-01-26T03:15:43.208Z,100585.77
2019-01-26T03:16:48.115Z,100582.19
2019-01-26T03:17:53.277Z,100582.19
2019-01-26T03:18:58.504Z,100577.85
2019-01-26T03:20:03.738Z,100574.66
2019-01-26T03:21:09.016Z,100571.91
2019-01-26T03:22:14.022Z,100575.27
2019-01-26T03:23:19.014Z,100573.48
2019-01-26T03:24:23.900Z,100572.92
2019-01-26T03:25:28.819Z,100575.56
2019-01-26T03:26:33.776Z,100570.63
2019-01-26T03:27:38.801Z,100573.65
2019-01-26T03:28:43.726Z,100570.92
2019-01-26T03:29:48.636Z,100573.91
2019-01-26T03:30:53.631Z,100579.66
2019-01-26T03:31:58.586Z,100579.47
2019-01-26T03:33:03.449Z,100585.09
2019-01-26T03:34:08.503Z,100583.89
2019-01-26T03:35:13.502Z,100584.84
2019-01-26T03:36:18.448Z,100582.20
2019-01-26T03:37:23.347Z,100587.38
2019-01-26T03:38:28.923Z,100589.52
2019-01-26T03:39:33.820Z,100586.06
2019-01-26T03:40:38.709Z,100585.47
2019-01-26T03:41:43.720Z,100581.05
2019-01-26T03:42:48.912Z,100582.84
2019-01-26T03:43:54.501Z,100578.41
2019-01-26T03:44:59.388Z,100584.16
2019-01-26T03:46:04.692Z,100576.33
2019-01-26T03:47:13.747Z,100579.47
2019-01-26T03:48:16.534Z,100578.16
2019-01-26T03:49:22.125Z,100573.70
2019-01-26T03:50:27.102Z,100576.24
2019-01-26T03:51:32.331Z,100571.81
2019-01-26T03:52:37.271Z,100579.26
2019-01-26T03:53:45.864Z,100570.38
2019-01-26T03:54:51.033Z,100571.61
2019-01-26T03:55:56.393Z,100577.82
2019-01-26T03:57:01.364Z,100572.16
2019-01-26T03:58:06.345Z,100567.39
2019-01-26T03:59:12.354Z,100576.97
2019-01-26T04:00:19.797Z,100575.56
2019-01-26T04:01:25.050Z,100573.39
2019-01-26T04:02:30.404Z,100576.41
2019-01-26T04:03:35.388Z,100577.34
2019-01-26T04:04:40.446Z,100572.45
2019-01-26T04:05:45.342Z,100567.91
2019-01-26T04:06:50.254Z,100567.81
2019-01-26T04:07:55.223Z,100572.59
2019-01-26T04:09:00.187Z,100570.80
2019-01-26T04:10:05.981Z,100568.16
2019-01-26T04:11:10.959Z,100573.34
2019-01-26T04:12:15.930Z,100565.44
2019-01-26T04:13:21.200Z,100562.33
2019-01-26T04:14:26.267Z,100567.13
2019-01-26T04:15:31.240Z,100559.56
2019-01-26T04:16:36.914Z,100561.73
2019-01-26T04:17:42.189Z,100566.07
2019-01-26T04:18:47.167Z,100566.92
2019-01-26T04:19:52.406Z,100567.27
2019-01-26T04:20:57.380Z,100568.50
2019-01-26T04:22:02.284Z,100568.02
2019-01-26T04:23:07.246Z,100565.73
2019-01-26T04:24:12.232Z,100565.73
2019-01-26T04:25:17.659Z,100563.00
2019-01-26T04:26:22.949Z,100554.62
2019-01-26T04:27:27.866Z,100560.24
2019-01-26T04:28:32.777Z,100553.30
2019-01-26T04:29:37.758Z,100556.88
2019-01-26T04:30:42.932Z,100556.16
2019-01-26T04:31:47.912Z,100555.18
2019-01-26T04:32:53.295Z,100550.66
2019-01-26T04:33:58.475Z,100548.02
2019-01-26T04:35:03.850Z,100554.23
2019-01-26T04:36:09.022Z,100542.59
2019-01-26T04:37:14.338Z,100543.18
2019-01-26T04:38:19.221Z,100542.20
2019-01-26T04:39:24.409Z,100545.60
2019-01-26T04:40:29.303Z,100543.78
2019-01-26T04:41:34.279Z,100540.67
2019-01-26T04:42:39.269Z,100537.95
2019-01-26T04:43:44.557Z,100538.79
2019-01-26T04:44:49.540Z,100537.00
2019-01-26T04:45:54.553Z,100540.11
2019-01-26T04:46:59.568Z,100536.50
2019-01-26T04:48:05.640Z,100533.86
2019-01-26T04:49:10.833Z,100539.98
2019-01-26T04:50:16.924Z,100535.94
2019-01-26T04:51:21.989Z,100534.97
2019-01-26T04:52:27.657Z,100539.30
2019-01-26T04:53:32.944Z,100538.11
2019-01-26T04:54:38.159Z,100534.97
2019-01-26T04:55:43.422Z,100540.23
2019-01-26T04:56:48.418Z,100538.11
2019-01-26T04:57:53.358Z,100538.45
2019-01-26T04:58:58.376Z,100540.15
2019-01-26T05:00:03.366Z,100533.08
2019-01-26T05:01:09.160Z,100531.17
2019-01-26T05:02:14.368Z,100526.36
2019-01-26T05:03:19.486Z,100524.57
2019-01-26T05:04:24.427Z,100530.60
2019-01-26T05:05:29.402Z,100538.52
2019-01-26T05:06:34.289Z,100533.24
2019-01-26T05:07:39.546Z,100525.80
2019-01-26T05:08:44.736Z,100523.50
2019-01-26T05:09:50.029Z,100523.03
2019-01-26T05:10:54.923Z,100521.72
2019-01-26T05:11:59.816Z,100518.52
2019-01-26T05:13:04.777Z,100524.14
2019-01-26T05:14:09.727Z,100521.87
2019-01-26T05:15:15.358Z,100518.77
2019-01-26T05:16:20.324Z,100519.96
2019-01-26T05:17:25.221Z,100516.50
2019-01-26T05:18:30.138Z,100509.78
2019-01-26T05:19:35.126Z,100507.61
2019-01-26T05:20:40.027Z,100515.06
2019-01-26T05:21:44.933Z,100506.20
2019-01-26T05:22:49.924Z,100506.58
2019-01-26T05:23:55.207Z,100507.39
2019-01-26T05:25:00.350Z,100498.66
2019-01-26T05:26:05.820Z,100494.70
2019-01-26T05:27:10.827Z,100491.09
2019-01-26T05:28:15.799Z,100483.92
2019-01-26T05:29:20.876Z,100483.42
2019-01-26T05:30:29.979Z,100485.97
2019-01-26T05:31:34.958Z,100490.77
2019-01-26T05:32:39.892Z,100484.65
2019-01-26T05:33:45.141Z,100490.64
2019-01-26T05:34:50.038Z,100492.94
2019-01-26T05:35:54.969Z,100497.24
2019-01-26T05:36:59.884Z,100488.51
2019-01-26T05:38:05.273Z,100502.52
2019-01-26T05:39:10.212Z,100494.13
2019-01-26T05:40:16.144Z,100494.03
2019-01-26T05:41:21.110Z,100494.51
2019-01-26T05:42:26.089Z,100500.16
2019-01-26T05:43:30.978Z,100496.67
2019-01-26T05:44:35.901Z,100499.66
2019-01-26T05:45:40.873Z,100502.20
2019-01-26T05:46:46.172Z,100499.47
2019-01-26T05:47:51.351Z,100501.98
2019-01-26T05:48:56.259Z,100501.39
2019-01-26T05:50:01.222Z,100504.87
2019-01-26T05:51:06.247Z,100509.68
2019-01-26T05:52:11.232Z,100510.06
2019-01-26T05:53:16.211Z,100509.59
2019-01-26T05:54:21.181Z,100515.21
2019-01-26T05:55:26.424Z,100515.21
2019-01-26T05:56:31.730Z,100509.11
2019-01-26T05:57:36.757Z,100517.84
2019-01-26T05:58:41.951Z,100519.17
2019-01-26T05:59:46.870Z,100514.27
2019-01-26T06:00:51.769Z,100521.62
2019-01-26T06:01:56.855Z,100520.30
2019-01-26T06:03:01.854Z,100520.30
2019-01-26T06:04:08.641Z,100516.81
2019-01-26T06:05:13.797Z,100519.45
2019-01-26T06:06:18.729Z,100514.64
2019-01-26T06:07:24.045Z,100519.08
2019-01-26T06:08:29.119Z,100521.24
2019-01-26T06:09:34.357Z,100518.98
2019-01-26T06:10:39.507Z,100515.39
2019-01-26T06:11:44.951Z,100515.87
2019-01-26T06:12:50.137Z,100518.13
2019-01-26T06:13:55.044Z,100513.33
2019-01-26T06:15:00.333Z,100515.96
2019-01-26T06:16:05.847Z,100508.05
2019-01-26T06:17:10.760Z,100500.12
2019-01-26T06:18:17.073Z,100499.18
2019-01-26T06:19:22.117Z,100506.16
2019-01-26T06:20:27.569Z,100497.39
2019-01-26T06:21:33.053Z,100504.93
2019-01-26T06:22:38.286Z,100501.44
2019-01-26T06:23:43.463Z,100502.67
2019-01-26T06:24:48.424Z,100509.73
2019-01-26T06:25:53.407Z,100502.67
2019-01-26T06:26:58.405Z,100505.21
2019-01-26T06:28:03.706Z,100510.97
2019-01-26T06:29:08.635Z,100503.05
2019-01-26T06:30:19.261Z,100507.85
2019-01-26T06:31:24.170Z,100506.06
2019-01-26T06:32:29.152Z,100505.94
2019-01-26T06:33:34.149Z,100505.08
2019-01-26T06:34:39.306Z,100504.14
2019-01-26T06:35:44.594Z,100498.86
2019-01-26T06:36:49.492Z,100498.77
2019-01-26T06:37:54.675Z,100493.83
2019-01-26T06:38:59.600Z,100490.24
2019-01-26T06:40:06.029Z,100486.28
2019-01-26T06:41:11.042Z,100485.44
2019-01-26T06:42:15.948Z,100488.55
2019-01-26T06:43:20.838Z,100492.88
2019-01-26T06:44:25.756Z,100494.11
2019-01-26T06:45:30.842Z,100486.75
2019-01-26T06:46:35.795Z,100486.38
2019-01-26T06:47:40.765Z,100490.34
2019-01-26T06:48:47.911Z,100493.48
2019-01-26T06:49:52.852Z,100492.64
2019-01-26T06:50:57.742Z,100497.07
2019-01-26T06:52:02.734Z,100488.43
2019-01-26T06:53:07.640Z,100487.58
2019-01-26T06:54:12.516Z,100497.67
2019-01-26T06:55:17.838Z,100493.48
2019-01-26T06:56:23.135Z,100489.02
2019-01-26T06:57:28.069Z,100492.88
2019-01-26T06:58:33.166Z,100491.56
2019-01-26T06:59:38.043Z,100490.96
2019-01-26T07:00:42.960Z,100488.70
2019-01-26T07:01:47.975Z,100486.78
2019-01-26T07:02:52.958Z,100494.13
2019-01-26T07:03:58.219Z,100492.58
2019-01-26T07:05:35.793Z,100493.91
2019-01-26T07:06:47.622Z,100489.81
2019-01-26T07:07:52.958Z,100495.94
2019-01-26T07:08:58.195Z,100495.94
2019-01-26T07:10:04.215Z,100490.31
2019-01-26T07:11:09.250Z,100496.92
2019-01-26T07:12:14.547Z,100498.72
2019-01-26T07:13:19.675Z,100488.25
2019-01-26T07:14:24.887Z,100492.58
2019-01-26T07:15:30.264Z,100491.73
2019-01-26T07:16:35.273Z,100490.41
2019-01-26T07:17:40.470Z,100493.44
2019-01-26T07:18:45.734Z,100492.45
2019-01-26T07:19:50.964Z,100487.55
2019-01-26T07:20:59.280Z,100489.72
2019-01-26T07:22:04.516Z,100487.45
2019-01-26T07:23:09.627Z,100483.48
2019-01-26T07:24:14.560Z,100490.44
2019-01-26T07:25:19.906Z,100493.08
2019-01-26T07:26:24.909Z,100483.83
2019-01-26T07:27:29.884Z,100482.52
2019-01-26T07:28:34.777Z,100482.64
2019-01-26T07:29:39.757Z,100478.20
2019-01-26T07:30:44.942Z,100487.32
2019-01-26T07:31:49.854Z,100491.88
2019-01-26T07:32:55.841Z,100480.47
2019-01-26T07:34:00.752Z,100486.13
2019-01-26T07:35:06.407Z,100482.64
2019-01-26T07:36:11.595Z,100488.77
2019-01-26T07:37:17.741Z,100485.53
2019-01-26T07:38:23.291Z,100487.22
2019-01-26T07:39:28.893Z,100486.75
2019-01-26T07:40:34.331Z,100484.58
2019-01-26T07:41:39.571Z,100482.28
2019-01-26T07:42:45.066Z,100483.13
2019-01-26T07:43:50.056Z,100484.11
2019-01-26T07:44:55.167Z,100479.64
2019-01-26T07:46:00.653Z,100480.15
2019-01-26T07:47:05.735Z,100477.37
2019-01-26T07:48:16.783Z,100480.77
2019-01-26T07:49:18.107Z,100474.51
2019-01-26T07:50:23.485Z,100484.22
2019-01-26T07:51:29.092Z,100479.07
2019-01-26T07:52:34.313Z,100480.49
2019-01-26T07:53:39.304Z,100476.43
2019-01-26T07:54:44.267Z,100481.81
2019-01-26T07:55:49.324Z,100475.21
2019-01-26T07:56:54.305Z,100484.45
2019-01-26T07:57:59.355Z,100478.32
2019-01-26T07:59:04.291Z,100477.98
2019-01-26T08:00:16.443Z,100473.04
2019-01-26T08:01:21.423Z,100478.70
2019-01-26T08:02:26.610Z,100473.55
2019-01-26T08:03:31.523Z,100475.34
2019-01-26T08:04:36.523Z,100477.61
2019-01-26T08:05:41.495Z,100475.56
2019-01-26T08:06:46.445Z,100477.73
2019-01-26T08:07:51.494Z,100474.72
2019-01-26T08:08:57.908Z,100474.34
2019-01-26T08:10:03.227Z,100467.27
2019-01-26T08:11:08.451Z,100473.88
2019-01-26T08:12:13.358Z,100474.81
2019-01-26T08:13:18.279Z,100471.45
2019-01-26T08:14:23.564Z,100473.72
2019-01-26T08:15:34.613Z,100468.57
2019-01-26T08:16:39.543Z,100463.63
2019-01-26T08:17:44.494Z,100473.25
2019-01-26T08:18:49.435Z,100467.37
2019-01-26T08:19:54.691Z,100477.11
2019-01-26T08:20:59.703Z,100475.80
2019-01-26T08:22:05.069Z,100480.33
2019-01-26T08:23:10.576Z,100479.00
2019-01-26T08:24:16.127Z,100476.02
2019-01-26T08:25:21.558Z,100482.25
2019-01-26T08:26:26.592Z,100483.09
2019-01-26T08:27:31.524Z,100480.55
2019-01-26T08:28:36.528Z,100483.32
2019-01-26T08:29:41.915Z,100478.27
2019-01-26T08:30:47.090Z,100481.00
2019-01-26T08:31:52.049Z,100479.30
2019-01-26T08:32:57.007Z,100483.88
2019-01-26T08:34:02.243Z,100487.83
2019-01-26T08:35:07.643Z,100485.66
2019-01-26T08:36:13.023Z,100491.79
2019-01-26T08:37:17.945Z,100499.71
2019-01-26T08:38:23.024Z,100504.14
2019-01-26T08:39:27.969Z,100495.15
2019-01-26T08:40:32.899Z,100495.63
2019-01-26T08:41:37.841Z,100490.34
2019-01-26T08:42:43.429Z,100485.56
2019-01-26T08:43:48.328Z,100493.83
2019-01-26T08:44:53.308Z,100489.77
2019-01-26T08:45:58.239Z,100483.05
2019-01-26T08:47:03.477Z,100479.36
2019-01-26T08:48:08.578Z,100482.34
2019-01-26T08:49:13.546Z,100484.89
2019-01-26T08:50:20.967Z,100480.45
2019-01-26T08:51:25.873Z,100481.30
2019-01-26T08:52:31.181Z,100477.69
2019-01-26T08:53:35.994Z,100480.33
2019-01-26T08:54:40.919Z,100486.45
2019-01-26T08:55:45.863Z,100488.63
2019-01-26T08:56:51.151Z,100486.92
2019-01-26T08:57:56.161Z,100490.55
2019-01-26T08:59:01.228Z,100485.27
2019-01-26T09:00:09.412Z,100490.04
2019-01-26T09:01:14.385Z,100481.50
2019-01-26T09:02:38.686Z,100484.27
2019-01-26T09:03:58.297Z,100482.09
2019-01-26T09:05:03.261Z,100487.84
2019-01-26T09:06:30.499Z,100486.19
2019-01-26T09:07:35.423Z,100491.94
2019-01-26T09:08:41.254Z,100487.00
2019-01-26T09:09:46.181Z,100491.34
2019-01-26T09:10:51.526Z,100490.87
2019-01-26T09:11:57.500Z,100499.98
2019-01-26T09:13:02.518Z,100487.75
2019-01-26T09:14:07.488Z,100501.30
2019-01-26T09:15:13.377Z,100497.72
2019-01-26T09:16:18.387Z,100498.94
2019-01-26T09:17:23.570Z,100495.45
2019-01-26T09:18:28.643Z,100498.56
2019-01-26T09:19:33.624Z,100500.73
2019-01-26T09:20:39.069Z,100502.05
2019-01-26T09:21:45.733Z,100499.88
2019-01-26T09:22:51.125Z,100501.45
2019-01-26T09:23:56.053Z,100505.78
2019-01-26T09:25:00.954Z,100504.84
2019-01-26T09:26:06.312Z,100503.87
2019-01-26T09:27:11.383Z,100498.96
2019-01-26T09:28:16.459Z,100501.98
2019-01-26T09:29:21.674Z,100501.00
2019-01-26T09:30:26.666Z,100505.33
2019-01-26T09:31:31.879Z,100498.73
2019-01-26T09:32:36.922Z,100499.95
2019-01-26T09:33:42.473Z,100494.55
2019-01-26T09:34:48.116Z,100491.33
2019-01-26T09:35:53.158Z,100489.88
2019-01-26T09:36:58.201Z,100492.42
2019-01-26T09:38:03.284Z,100491.34
2019-01-26T09:39:10.364Z,100491.69
2019-01-26T09:40:16.306Z,100486.91
2019-01-26T09:41:21.243Z,100491.69
2019-01-26T09:42:38.460Z,100492.54
2019-01-26T09:43:43.546Z,100493.86
2019-01-26T09:44:48.646Z,100499.42
2019-01-26T09:45:53.638Z,100490.89
2019-01-26T09:46:58.965Z,100494.72
2019-01-26T09:48:04.097Z,100493.30
2019-01-26T09:49:09.159Z,100489.34
2019-01-26T09:50:15.202Z,100493.20
2019-01-26T09:51:20.539Z,100486.00
2019-01-26T09:52:25.536Z,100490.34
2019-01-26T09:53:30.618Z,100487.69
2019-01-26T09:54:35.561Z,100479.64
2019-01-26T09:55:40.480Z,100485.52
2019-01-26T09:56:45.385Z,100483.73
2019-01-26T09:57:50.978Z,100483.03
2019-01-26T09:58:56.386Z,100484.22
2019-01-26T10:00:01.321Z,100485.91
2019-01-26T10:01:07.257Z,100485.53
2019-01-26T10:02:12.348Z,100485.06
2019-01-26T10:03:17.680Z,100488.18
2019-01-26T10:04:22.709Z,100483.84
2019-01-26T10:05:28.103Z,100491.77
2019-01-26T10:06:33.173Z,100485.16
2019-01-26T10:07:38.151Z,100484.59
2019-01-26T10:08:44.076Z,100483.14
2019-01-26T10:09:49.829Z,100493.13
2019-01-26T10:10:55.385Z,100490.36
2019-01-26T10:12:00.314Z,100489.41
2019-01-26T10:13:05.297Z,100499.75
2019-01-26T10:14:11.411Z,100489.55
2019-01-26T10:15:16.709Z,100481.49
2019-01-26T10:16:22.018Z,100485.70
2019-01-26T10:17:27.019Z,100484.75
2019-01-26T10:18:32.042Z,100482.48
2019-01-26T10:19:37.117Z,100484.17
2019-01-26T10:20:42.400Z,100477.56
2019-01-26T10:21:47.709Z,100478.76
2019-01-26T10:22:52.730Z,100479.61
2019-01-26T10:23:57.644Z,100475.03
2019-01-26T10:25:02.666Z,100474.09
2019-01-26T10:26:08.162Z,100464.46
2019-01-26T10:27:13.337Z,100464.73
2019-01-26T10:28:18.603Z,100466.05
2019-01-26T10:29:23.798Z,100462.33
2019-01-26T10:30:34.625Z,100467.61
2019-01-26T10:31:40.061Z,100463.98
2019-01-26T10:32:45.605Z,100459.08
2019-01-26T10:33:50.653Z,100459.55
2019-01-26T10:34:55.590Z,100456.19
2019-01-26T10:36:19.778Z,100461.01
2019-01-26T10:37:27.352Z,100457.89
2019-01-26T10:38:34.167Z,100464.73
2019-01-26T10:39:39.148Z,100466.43
2019-01-26T10:41:11.923Z,100466.43
2019-01-26T10:42:28.358Z,100468.09
2019-01-26T10:43:35.664Z,100461.14
2019-01-26T10:44:41.220Z,100462.47
2019-01-26T10:45:47.138Z,100462.80
2019-01-26T10:46:52.117Z,100460.16
2019-01-26T10:47:57.200Z,100459.69
2019-01-26T10:49:02.214Z,100461.48
2019-01-26T10:50:07.616Z,100458.84
2019-01-26T10:51:12.632Z,100456.67
2019-01-26T10:52:17.628Z,100449.59
2019-01-26T10:53:23.011Z,100453.31
2019-01-26T10:54:28.005Z,100456.80
2019-01-26T10:55:33.009Z,100456.09
2019-01-26T10:56:38.000Z,100451.52
2019-01-26T10:57:43.253Z,100451.31
2019-01-26T10:58:48.182Z,100452.02
2019-01-26T10:59:53.640Z,100454.43
2019-01-26T11:00:59.223Z,100451.31
2019-01-26T11:02:04.458Z,100454.80
2019-01-26T11:03:09.904Z,100445.89
2019-01-26T11:04:14.915Z,100445.31
2019-01-26T11:05:20.040Z,100442.19
2019-01-26T11:06:25.146Z,100442.42
2019-01-26T11:07:30.552Z,100440.48
2019-01-26T11:08:35.771Z,100444.35
2019-01-26T11:09:40.948Z,100440.62
2019-01-26T11:10:46.031Z,100435.56
2019-01-26T11:11:51.062Z,100427.86
2019-01-26T11:12:56.100Z,100435.22
2019-01-26T11:14:01.298Z,100431.96
2019-01-26T11:15:06.885Z,100431.38
2019-01-26T11:16:13.037Z,100434.26
2019-01-26T11:17:18.031Z,100432.32
2019-01-26T11:18:22.960Z,100430.89
2019-01-26T11:19:28.026Z,100432.08
2019-01-26T11:20:33.012Z,100427.52
2019-01-26T11:21:37.939Z,100430.41
2019-01-26T11:22:43.416Z,100428.47
2019-01-26T11:23:48.347Z,100431.85
2019-01-26T11:24:53.251Z,100425.58
2019-01-26T11:25:58.415Z,100430.28
2019-01-26T11:27:03.672Z,100419.22
2019-01-26T11:28:08.673Z,100430.99
2019-01-26T11:29:14.185Z,100427.39
2019-01-26T11:30:20.454Z,100420.16
2019-01-26T11:31:25.997Z,100417.88
2019-01-26T11:32:31.386Z,100419.06
2019-01-26T11:33:36.779Z,100399.22
2019-01-26T11:34:41.866Z,100401.41
2019-01-26T11:35:47.157Z,100401.41
2019-01-26T11:36:52.368Z,100394.44
2019-01-26T11:38:00.515Z,100397.42
2019-01-26T11:39:09.522Z,100391.88
2019-01-26T11:40:20.844Z,100397.91
2019-01-26T11:41:25.808Z,100396.59
2019-01-26T11:42:31.121Z,100390.81
2019-01-26T11:43:39.560Z,100391.30
2019-01-26T11:45:03.499Z,100388.50
2019-01-26T11:46:18.707Z,100386.09
2019-01-26T11:47:24.203Z,100386.82
2019-01-26T11:48:33.159Z,100380.44
2019-01-26T11:49:42.101Z,100378.27
2019-01-26T11:50:50.212Z,100380.66
2019-01-26T11:52:12.865Z,100376.10
2019-01-26T11:53:19.676Z,100376.44
2019-01-26T11:54:24.629Z,100370.89
2019-01-26T11:55:41.463Z,100370.89
2019-01-26T11:56:48.850Z,100374.38
2019-01-26T11:57:54.614Z,100371.73
2019-01-26T11:58:59.693Z,100364.64
2019-01-26T12:00:31.875Z,100358.98
2019-01-26T12:01:45.833Z,100364.89
2019-01-26T12:03:19.552Z,100362.02
2019-01-26T12:04:46.608Z,100357.83
2019-01-26T12:05:56.132Z,100356.36
2019-01-26T12:07:06.045Z,100350.81
2019-01-26T12:08:11.263Z,100357.43
2019-01-26T12:09:18.344Z,100346.14
2019-01-26T12:10:23.248Z,100346.61
2019-01-26T12:11:28.255Z,100344.67
2019-01-26T12:12:33.843Z,100348.76
2019-01-26T12:13:40.499Z,100346.22
2019-01-26T12:14:45.839Z,100335.30
2019-01-26T12:15:50.982Z,100335.37
2019-01-26T12:16:55.934Z,100336.19
2019-01-26T12:18:02.084Z,100333.54
2019-01-26T12:19:08.195Z,100331.33
2019-01-26T12:20:15.286Z,100321.55
2019-01-26T12:21:20.491Z,100330.08
2019-01-26T12:22:25.481Z,100322.02
2019-01-26T12:23:30.411Z,100324.14
2019-01-26T12:24:35.426Z,100321.23
2019-01-26T12:25:40.441Z,100321.23
2019-01-26T12:26:46.064Z,100318.80
2019-01-26T12:27:51.462Z,100328.30
2019-01-26T12:28:57.122Z,100319.87
2019-01-26T12:30:04.270Z,100318.54
2019-01-26T12:31:09.442Z,100319.39